»·PEaware :: G-GAMM KBFL-KMHV

G-GAMM :: KBFL-KMHV

FLIGHT INFORMATION

Flight Status: Arrived
Operator: Privately registered:
United Kingdom
More flights under this callsign
Pilot: Malcolm M. (20352)
Aircraft: CESSNA 172 SKYHAWK
(C172)
More flights by this aircraft type
Origin: KBFL Meadows
United States
Destination: KMHV Mojave
United States
More flights between these airports :: More routes between these airports
Route: KTSP
File this flight plan on PilotEdge
Remarks:
Altitude:
(Current/Filed)
5,500ft
Speed:
(Current/Filed)
110kts
Departed: 19-Sep-18 12:53 PM
Arrived: 19-Sep-18 01:26 PM
Distance/Time
Traveled:
49nm/0:33
Distance/Time
To Go:
Arrived

Flight Plot

Page will automatically refresh every two minutes.

Flight plan parsing failed; only flown route is shown


Map Options




Map Legend


Flown Route
Filed Route
Departure Airport
Arrival Airport
Navaid (VOR, NDB)
Fix

Horizontal Profiles

Position Reports

Time Latitude Longitude Heading Altitude Ground
Speed
19-Sep-18 12:39 35.430517 -119.047671 145 510ft 0kts
19-Sep-18 12:40 35.430517 -119.047671 145 510ft 0kts
19-Sep-18 12:41 35.430517 -119.047671 145 510ft 0kts
19-Sep-18 12:42 35.430517 -119.047671 145 510ft 0kts
19-Sep-18 12:43 35.430517 -119.047671 145 510ft 0kts
19-Sep-18 12:44 35.430517 -119.047671 145 510ft 0kts
19-Sep-18 12:45 35.430517 -119.047671 145 510ft 0kts
19-Sep-18 12:46 35.430432 -119.047647 188 510ft 4kts
19-Sep-18 12:47 35.429092 -119.048211 133 510ft 6kts
19-Sep-18 12:48 35.426505 -119.045075 136 510ft 9kts
19-Sep-18 12:49 35.425370 -119.044593 269 510ft 3kts
19-Sep-18 12:50 35.425369 -119.044641 269 510ft 0kts
19-Sep-18 12:51 35.425369 -119.044642 269 510ft 0kts
19-Sep-18 12:52 35.425369 -119.044643 269 510ft 0kts
19-Sep-18 12:53 35.425369 -119.044643 269 510ft 0kts
19-Sep-18 12:54 35.426618 -119.047485 314 510ft 6kts
19-Sep-18 12:55 35.441349 -119.066826 313 1001ft 99kts
19-Sep-18 12:56 35.463985 -119.062480 46 1524ft 115kts
19-Sep-18 12:57 35.453601 -119.030746 134 1493ft 117kts
19-Sep-18 12:58 35.432887 -119.003274 134 1974ft 98kts
19-Sep-18 12:59 35.415203 -118.978941 133 2821ft 94kts
19-Sep-18 13:00 35.396918 -118.956233 134 3700ft 91kts
19-Sep-18 13:01 35.379343 -118.934676 134 4567ft 87kts
19-Sep-18 13:02 35.365739 -118.910991 103 5369ft 89kts
19-Sep-18 13:03 35.354930 -118.875707 108 5405ft 122kts
19-Sep-18 13:04 35.341104 -118.837153 110 5399ft 123kts
19-Sep-18 13:05 35.329300 -118.797290 106 5344ft 125kts
19-Sep-18 13:06 35.320604 -118.756190 101 5336ft 123kts
19-Sep-18 13:07 35.313723 -118.715987 98 5337ft 123kts
19-Sep-18 13:08 35.293808 -118.684042 124 5349ft 123kts
19-Sep-18 13:09 35.276231 -118.649617 120 5346ft 124kts
19-Sep-18 13:10 35.257573 -118.613772 128 5343ft 124kts
19-Sep-18 13:11 35.234207 -118.582633 135 5334ft 124kts
19-Sep-18 13:12 35.210429 -118.551736 132 5328ft 124kts
19-Sep-18 13:13 35.188157 -118.519657 125 5326ft 124kts
19-Sep-18 13:14 35.167389 -118.485823 128 5324ft 124kts
19-Sep-18 13:15 35.146373 -118.452839 127 5321ft 123kts
19-Sep-18 13:16 35.130441 -118.416523 96 5317ft 122kts
19-Sep-18 13:17 35.126279 -118.375420 110 5320ft 123kts
19-Sep-18 13:18 35.112199 -118.337375 115 5322ft 123kts
19-Sep-18 13:19 35.102495 -118.305278 90 5321ft 118kts
19-Sep-18 13:20 35.095759 -118.259002 113 5326ft 119kts
19-Sep-18 13:21 35.111222 -118.232265 330 5321ft 115kts
19-Sep-18 13:22 35.100709 -118.248117 160 5328ft 118kts
19-Sep-18 13:23 35.091211 -118.204716 84 5323ft 123kts
19-Sep-18 13:24 35.094165 -118.159569 84 4682ft 142kts
19-Sep-18 13:25 35.086221 -118.128139 106 3930ft 98kts
19-Sep-18 13:26 35.064816 -118.118549 197 3736ft 71kts
19-Sep-18 13:27 35.057589 -118.130011 271 3250ft 51kts
19-Sep-18 13:28 35.059219 -118.148006 273 2794ft 40kts
19-Sep-18 13:29 35.059167 -118.149577 271 2794ft 0kts
19-Sep-18 13:30 35.058590 -118.150099 140 2794ft 0kts
19-Sep-18 13:31 35.058589 -118.150099 140 2794ft 0kts
19-Sep-18 13:32 35.058589 -118.150099 140 2794ft 0kts
19-Sep-18 13:33 35.058589 -118.150098 140 2794ft 0kts
19-Sep-18 13:34 35.058477 -118.149981 138 2794ft 2kts
19-Sep-18 13:35 35.057470 -118.150375 268 2794ft 15kts
19-Sep-18 13:36 35.057459 -118.157487 269 2794ft 19kts
19-Sep-18 13:37 35.057326 -118.163337 200 2794ft 10kts
19-Sep-18 13:38 35.056641 -118.163921 92 2794ft 0kts

Navigation Log

Ident Type
Flight plan parsing failed, navigation log unavailable